Time;durP1;ratioP1;P1;durP2;ratioP2;P2;SDS_P1;SDS_P2;PMS_P1;PMS_P2;Temp;Humidity;BMP_temperature;BMP_pressure;BME280_temperature;BME280_humidity;BME280_pressure;Samples;Min_cycle;Max_cycle;Signal;HPM_P1;HPM_P2
2022/04/02 00:00:42;;;;;;;10.93;5.53;;;;;;;-2.88;84.94;101023.84;5085026;28;20042;-77
2022/04/02 00:03:08;;;;;;;8.45;5.40;;;;;;;-2.91;85.94;101026.06;5083534;28;20040;-77
2022/04/02 00:05:34;;;;;;;9.75;5.70;;;;;;;-2.94;85.43;101023.75;5092536;28;20028;-78
2022/04/02 00:07:59;;;;;;;9.52;5.20;;;;;;;-2.99;85.95;101013.56;5121567;28;20043;-75
2022/04/02 00:10:25;;;;;;;8.63;5.15;;;;;;;-3.03;86.63;101014.94;5115557;28;20039;-75
2022/04/02 00:12:53;;;;;;;9.88;5.03;;;;;;;-3.07;86.73;101011.78;5108345;28;20042;-76
2022/04/02 00:15:19;;;;;;;9.50;4.53;;;;;;;-3.10;87.07;101020.22;5092666;28;20100;-77
2022/04/02 00:17:44;;;;;;;8.85;5.38;;;;;;;-3.15;86.82;101017.22;5099216;28;20317;-74
2022/04/02 00:20:10;;;;;;;9.05;5.13;;;;;;;-3.16;86.95;101012.88;5097639;28;20050;-77
2022/04/02 00:22:36;;;;;;;7.63;5.25;;;;;;;-3.18;87.00;101014.91;5117490;28;20035;-77
2022/04/02 00:25:02;;;;;;;9.00;5.90;;;;;;;-3.16;87.28;101001.31;5069533;28;20110;-76
2022/04/02 00:27:28;;;;;;;8.88;5.70;;;;;;;-3.14;86.79;101010.84;5113631;28;20061;-75
2022/04/02 00:29:54;;;;;;;10.05;6.63;;;;;;;-3.12;87.25;101008.84;5112628;28;20083;-77
2022/04/02 00:32:19;;;;;;;7.30;6.10;;;;;;;-3.08;87.04;101006.63;5074759;28;20552;-76
2022/04/02 00:34:45;;;;;;;8.85;6.07;;;;;;;-3.01;87.45;101006.69;5114834;28;20036;-77
2022/04/02 00:37:11;;;;;;;9.27;6.30;;;;;;;-2.96;87.18;101005.13;5107450;28;20035;-74
2022/04/02 00:39:43;;;;;;;8.65;5.30;;;;;;;-2.98;87.30;101003.66;5122339;28;20058;-74
2022/04/02 00:42:09;;;;;;;6.47;5.25;;;;;;;-2.92;87.58;101005.63;5110552;27;20031;-76
2022/04/02 00:44:35;;;;;;;6.50;5.28;;;;;;;-2.90;86.48;101001.72;5102397;27;20068;-75
2022/04/02 00:47:01;;;;;;;10.38;6.20;;;;;;;-2.93;86.61;100998.59;5110200;27;20119;-74
2022/04/02 00:49:28;;;;;;;9.32;6.03;;;;;;;-2.96;86.56;100997.06;5108777;28;20032;-75
2022/04/02 00:51:54;;;;;;;8.30;6.55;;;;;;;-3.03;86.25;100997.00;5122183;27;20039;-76
2022/04/02 00:54:22;;;;;;;9.20;5.65;;;;;;;-2.97;86.54;101002.63;5086132;28;20039;-77
2022/04/02 00:56:48;;;;;;;11.15;6.57;;;;;;;-2.95;86.35;101006.81;5108739;27;20491;-76
2022/04/02 00:59:15;;;;;;;9.35;6.57;;;;;;;-2.96;86.81;100998.91;5101692;27;20046;-77
2022/04/02 01:01:44;;;;;;;6.85;5.00;;;;;;;-2.94;86.71;101004.97;5092179;28;20039;-76
2022/04/02 01:04:10;;;;;;;8.48;6.55;;;;;;;-2.98;86.79;101015.22;5100584;27;20043;-77
2022/04/02 01:06:45;;;;;;;8.18;5.00;;;;;;;-3.14;86.74;101010.00;5081953;27;20028;-77
2022/04/02 01:09:19;;;;;;;7.72;4.22;;;;;;;-3.24;86.80;100996.88;5094043;28;20126;-78
2022/04/02 01:11:51;;;;;;;7.38;4.88;;;;;;;-3.28;87.24;100997.44;5074183;28;20045;-77
2022/04/02 01:14:17;;;;;;;5.10;3.92;;;;;;;-3.29;87.73;100998.44;5083849;28;20032;-75
2022/04/02 01:16:46;;;;;;;7.35;5.03;;;;;;;-3.39;87.69;100994.16;5087175;27;20035;-76
2022/04/02 01:19:24;;;;;;;4.10;3.67;;;;;;;-3.50;87.71;101001.78;5069022;28;20031;-75
2022/04/02 01:22:06;;;;;;;6.22;4.05;;;;;;;-3.44;88.13;100995.72;5067774;28;20090;-76
2022/04/02 01:24:41;;;;;;;5.50;4.10;;;;;;;-3.36;87.73;100996.47;5086452;27;20046;-76
2022/04/02 01:27:08;;;;;;;7.35;5.50;;;;;;;-3.34;87.85;100989.06;5116456;27;20054;-77
2022/04/02 01:29:34;;;;;;;6.00;5.13;;;;;;;-3.41;87.33;100992.66;5093188;28;20036;-76
2022/04/02 01:32:04;;;;;;;6.63;5.05;;;;;;;-3.45;87.13;100980.63;5089738;28;20257;-76
2022/04/02 01:34:32;;;;;;;5.82;4.13;;;;;;;-3.44;87.55;100991.19;5091086;28;20036;-76
2022/04/02 01:37:06;;;;;;;5.63;4.50;;;;;;;-3.46;86.67;100989.72;5076848;28;22117;-75
2022/04/02 01:39:44;;;;;;;5.18;3.95;;;;;;;-3.46;87.04;100987.03;5071656;28;20048;-76
2022/04/02 01:42:14;;;;;;;5.00;3.83;;;;;;;-3.57;86.57;100990.97;5078812;28;20044;-77
2022/04/02 01:44:51;;;;;;;4.55;3.33;;;;;;;-3.70;86.54;100988.88;5092476;27;20034;-76
2022/04/02 01:47:24;;;;;;;4.22;3.05;;;;;;;-3.69;86.71;100987.84;5099465;28;20040;-76
2022/04/02 01:49:54;;;;;;;3.42;3.08;;;;;;;-3.70;86.68;100977.31;5079243;28;20089;-77
2022/04/02 01:52:46;;;;;;;4.03;3.10;;;;;;;-3.73;85.94;100972.31;5076279;28;20039;-75
2022/04/02 01:55:15;;;;;;;3.72;3.00;;;;;;;-3.77;86.79;100973.69;5075040;28;20043;-76
2022/04/02 01:57:47;;;;;;;3.75;2.75;;;;;;;-3.79;86.33;100975.72;5098639;28;20028;-76
2022/04/02 02:00:17;;;;;;;3.15;2.25;;;;;;;-3.72;87.04;100965.94;5098054;28;20047;-75
2022/04/02 02:02:45;;;;;;;3.40;2.60;;;;;;;-3.73;86.91;100969.63;5091668;27;20421;-75
2022/04/02 02:05:13;;;;;;;3.05;2.20;;;;;;;-3.70;86.81;100970.09;5089816;27;20055;-75
2022/04/02 02:07:39;;;;;;;3.75;2.88;;;;;;;-3.61;87.33;100976.25;5105681;28;20451;-74
2022/04/02 02:10:06;;;;;;;3.00;2.70;;;;;;;-3.66;86.68;100970.56;5099729;27;20039;-77
2022/04/02 02:13:00;;;;;;;3.15;2.28;;;;;;;-3.71;87.16;100970.28;5105495;27;20042;-76
2022/04/02 02:15:41;;;;;;;2.78;2.33;;;;;;;-3.69;87.26;100962.88;5105777;28;20036;-76
2022/04/02 02:18:07;;;;;;;3.78;2.60;;;;;;;-3.67;86.70;100963.53;5113521;27;20047;-76
2022/04/02 02:20:32;;;;;;;4.72;2.35;;;;;;;-3.66;87.39;100957.16;5107537;27;20043;-75
2022/04/02 02:22:58;;;;;;;3.35;2.30;;;;;;;-3.62;87.49;100952.28;5110372;27;20501;-75
2022/04/02 02:25:25;;;;;;;2.75;2.38;;;;;;;-3.61;87.72;100959.31;5111715;28;20169;-75
2022/04/02 02:27:52;;;;;;;3.70;2.78;;;;;;;-3.62;87.92;100960.34;5103239;27;20551;-76
2022/04/02 02:30:20;;;;;;;3.42;2.60;;;;;;;-3.66;87.51;100955.31;5122006;27;20059;-77
2022/04/02 02:32:47;;;;;;;4.32;2.97;;;;;;;-3.72;87.88;100960.56;5093692;27;20052;-77
2022/04/02 02:38:08;;;;;;;3.70;2.67;;;;;;;-3.89;87.00;100961.72;5082525;28;20040;-74
2022/04/02 02:40:41;;;;;;;3.58;2.63;;;;;;;-3.96;87.34;100957.06;5091853;28;20053;-77
2022/04/02 02:43:11;;;;;;;2.85;2.55;;;;;;;-3.97;87.77;100960.78;5073748;27;20030;-75
2022/04/02 02:45:40;;;;;;;3.20;2.70;;;;;;;-3.97;87.38;100962.63;5087501;27;20500;-76
2022/04/02 02:48:07;;;;;;;4.90;2.72;;;;;;;-3.99;87.57;100961.97;5084865;27;20505;-77
2022/04/02 02:50:59;;;;;;;4.05;2.92;;;;;;;-3.92;87.49;100956.72;5095478;27;20683;-76
2022/04/02 02:53:25;;;;;;;4.18;3.17;;;;;;;-3.83;87.13;100960.97;5088421;28;20039;-75
2022/04/02 02:55:51;;;;;;;3.53;3.10;;;;;;;-3.82;86.99;100968.00;5084491;28;20032;-77
2022/04/02 02:58:18;;;;;;;6.32;3.70;;;;;;;-3.89;87.12;100967.06;5100971;27;20497;-76
2022/04/02 03:00:46;;;;;;;4.45;3.13;;;;;;;-3.99;87.09;100970.84;5080190;27;20054;-76
2022/04/02 03:03:18;;;;;;;4.03;3.10;;;;;;;-4.07;86.50;100970.88;5087919;28;20565;-76
2022/04/02 03:05:46;;;;;;;5.60;3.35;;;;;;;-4.11;86.85;100966.06;5096077;28;20547;-78
2022/04/02 03:08:12;;;;;;;4.90;3.40;;;;;;;-4.12;86.77;100965.22;5088669;28;20040;-77
2022/04/02 03:10:47;;;;;;;4.90;3.33;;;;;;;-4.19;86.76;100966.94;5129022;27;20153;-78
2022/04/02 03:13:20;;;;;;;6.07;3.50;;;;;;;-4.24;86.50;100963.97;5099763;27;20057;-76
2022/04/02 03:15:47;;;;;;;5.25;3.25;;;;;;;-4.27;86.66;100961.63;5093182;28;20042;-77
2022/04/02 03:18:13;;;;;;;5.10;3.30;;;;;;;-4.29;86.85;100966.34;5083155;28;20044;-77
2022/04/02 03:20:45;;;;;;;6.90;3.97;;;;;;;-4.30;86.72;100965.50;5111891;27;20125;-77
2022/04/02 03:23:16;;;;;;;4.68;3.40;;;;;;;-4.29;87.09;100959.13;5102848;27;20039;-76
2022/04/02 03:25:42;;;;;;;4.88;3.65;;;;;;;-4.27;86.96;100958.97;5122626;27;20085;-76
2022/04/02 03:28:07;;;;;;;4.68;3.33;;;;;;;-4.27;86.37;100957.13;5122574;27;20066;-72
2022/04/02 03:30:33;;;;;;;5.63;4.10;;;;;;;-4.26;87.13;100957.94;5103819;27;20062;-74
2022/04/02 03:33:01;;;;;;;5.75;3.65;;;;;;;-4.28;86.47;100968.84;5118622;27;20070;-72
2022/04/02 03:35:27;;;;;;;4.53;2.95;;;;;;;-4.27;86.91;100967.00;5084489;28;20505;-71
2022/04/02 03:37:53;;;;;;;5.90;3.60;;;;;;;-4.24;86.13;100966.63;5082456;28;20054;-73
2022/04/02 03:40:23;;;;;;;4.80;2.70;;;;;;;-4.21;86.91;100952.03;5084179;28;20404;-73
2022/04/02 03:42:50;;;;;;;;;;;;;;;-4.16;85.99;100957.72;5089403;28;20035;-72
2022/04/02 03:45:22;;;;;;;5.10;3.30;;;;;;;-4.15;85.75;100965.59;5071474;28;19920;-73
2022/04/02 03:47:50;;;;;;;5.43;3.72;;;;;;;-4.13;86.16;100960.88;5101559;28;20059;-72
2022/04/02 03:50:17;;;;;;;5.15;3.53;;;;;;;-4.14;85.91;100961.91;5091990;28;20039;-73
2022/04/02 03:52:48;;;;;;;3.95;3.17;;;;;;;-4.11;85.59;100966.06;5087512;28;20075;-73
2022/04/02 03:55:18;;;;;;;5.22;3.47;;;;;;;-4.10;86.09;100968.56;5071314;28;20425;-73
2022/04/02 03:57:47;;;;;;;3.05;2.65;;;;;;;-4.08;85.89;100963.03;5088527;28;20447;-73
2022/04/02 04:00:16;;;;;;;4.28;2.95;;;;;;;-4.06;85.26;100956.47;5095558;28;20504;-73
2022/04/02 04:02:50;;;;;;;4.57;3.30;;;;;;;-4.05;85.45;100951.94;5126332;28;20050;-73
2022/04/02 04:05:23;;;;;;;5.82;3.40;;;;;;;-4.00;85.55;100955.75;5112734;28;20355;-73
2022/04/02 04:07:49;;;;;;;4.30;2.65;;;;;;;-3.97;85.03;100955.41;5091999;28;20031;-72
2022/04/02 04:10:17;;;;;;;4.40;3.30;;;;;;;-3.95;85.14;100945.34;5094337;28;20040;-72
2022/04/02 04:12:45;;;;;;;2.95;2.65;;;;;;;-3.92;85.15;100949.50;5104435;28;20036;-72
2022/04/02 04:15:13;;;;;;;4.30;3.15;;;;;;;-3.87;84.55;100951.66;5099445;27;20077;-72
2022/04/02 04:17:40;;;;;;;4.18;2.60;;;;;;;-3.84;85.16;100948.59;5088136;28;20059;-72
2022/04/02 04:20:09;;;;;;;4.28;2.60;;;;;;;-3.75;84.69;100955.56;5109588;27;20063;-72
2022/04/02 04:22:36;;;;;;;3.38;2.70;;;;;;;-3.68;84.50;100951.16;5083586;28;20135;-72
2022/04/02 04:25:03;;;;;;;2.95;2.50;;;;;;;-3.60;84.15;100945.72;5067720;27;20576;-73
2022/04/02 04:27:31;;;;;;;5.18;2.58;;;;;;;-3.52;83.21;100948.31;5085860;28;20578;-73
2022/04/02 04:29:57;;;;;;;3.80;2.33;;;;;;;-3.47;83.57;100953.13;5081702;28;20047;-72
2022/04/02 04:32:24;;;;;;;3.83;2.53;;;;;;;-3.42;82.51;100945.41;5084349;28;20067;-73
2022/04/02 04:34:50;;;;;;;3.80;2.65;;;;;;;-3.40;82.26;100949.56;5078917;27;20477;-73
2022/04/02 04:37:15;;;;;;;3.38;2.50;;;;;;;-3.37;81.90;100949.19;5098264;28;20115;-73
2022/04/02 04:39:41;;;;;;;3.28;2.13;;;;;;;-3.30;82.19;100945.75;5069404;28;20040;-72
2022/04/02 04:42:09;;;;;;;5.22;2.50;;;;;;;-3.27;81.42;100945.41;5082418;28;20142;-73
2022/04/02 04:44:37;;;;;;;3.10;2.30;;;;;;;-3.22;81.45;100943.84;5086866;28;20066;-73
2022/04/02 04:47:04;;;;;;;4.47;2.45;;;;;;;-3.16;81.42;100950.31;5082882;27;20035;-72
2022/04/02 04:49:36;;;;;;;4.22;2.70;;;;;;;-3.13;81.04;100950.78;5087154;28;20113;-73
2022/04/02 04:52:05;;;;;;;;;;;;;;;-3.13;80.19;100952.63;5094892;28;20123;-73
2022/04/02 04:54:32;;;;;;;3.83;2.33;;;;;;;-3.12;79.91;100952.47;5107526;27;19973;-73
2022/04/02 04:57:01;;;;;;;4.10;2.47;;;;;;;-3.09;80.38;100954.78;5113644;27;20039;-71
2022/04/02 04:59:27;;;;;;;2.97;2.40;;;;;;;-3.06;80.04;100956.25;5100159;27;20092;-73
2022/04/02 05:01:54;;;;;;;2.17;1.80;;;;;;;-3.02;79.74;100949.50;5098074;27;20050;-73
2022/04/02 05:04:20;;;;;;;3.08;1.90;;;;;;;-2.96;79.34;100956.81;5107158;27;20497;-72
2022/04/02 05:06:50;;;;;;;3.45;2.25;;;;;;;-2.89;79.25;100955.06;5108813;27;20421;-73
2022/04/02 05:09:17;;;;;;;3.40;2.33;;;;;;;-2.92;78.69;100949.22;5108463;27;20035;-72
2022/04/02 05:11:45;;;;;;;2.97;1.83;;;;;;;-2.89;78.83;100959.59;5096788;28;20028;-73
2022/04/02 05:14:14;;;;;;;3.05;2.30;;;;;;;-2.88;79.32;100945.97;5076521;28;20036;-73
2022/04/02 05:16:42;;;;;;;5.80;2.90;;;;;;;-2.86;78.78;100952.00;5075660;27;20040;-73
2022/04/02 05:19:11;;;;;;;3.87;3.03;;;;;;;-2.81;78.45;100938.84;5107995;27;20035;-73
2022/04/02 05:21:38;;;;;;;4.25;2.75;;;;;;;-2.76;79.10;100947.19;5108641;27;20062;-72
2022/04/02 05:24:07;;;;;;;6.00;3.40;;;;;;;-2.71;78.03;100949.31;5085067;28;20524;-73
2022/04/02 05:26:34;;;;;;;7.50;2.92;;;;;;;-2.74;77.93;100947.00;5064659;28;20427;-73
2022/04/02 05:29:06;;;;;;;4.25;3.00;;;;;;;-2.77;77.28;100942.84;5078069;28;20028;-73
2022/04/02 05:31:33;;;;;;;5.80;2.90;;;;;;;-2.77;77.75;100942.84;5079748;28;20045;-72
2022/04/02 05:34:04;;;;;;;4.07;2.28;;;;;;;-2.69;77.05;100941.06;5083084;28;20036;-73
2022/04/02 05:36:31;;;;;;;4.90;2.80;;;;;;;-2.57;76.92;100942.25;5079559;28;20063;-73
2022/04/02 05:38:57;;;;;;;6.80;2.72;;;;;;;-2.47;76.56;100938.22;5096477;28;20036;-72
2022/04/02 05:41:23;;;;;;;5.13;2.75;;;;;;;-2.38;76.99;100936.28;5101785;28;20042;-72
2022/04/02 05:43:48;;;;;;;3.70;2.85;;;;;;;-2.35;76.19;100935.91;5095351;28;20039;-74
2022/04/02 05:46:14;;;;;;;3.97;2.33;;;;;;;-2.19;75.96;100938.34;5083277;28;20628;-72
2022/04/02 05:48:40;;;;;;;3.30;2.20;;;;;;;-2.02;75.27;100935.41;5079798;28;20043;-73
2022/04/02 05:51:05;;;;;;;3.33;2.35;;;;;;;-1.95;75.44;100931.75;5078856;28;20084;-72
2022/04/02 05:53:31;;;;;;;4.97;2.80;;;;;;;-1.82;75.04;100931.06;5089696;28;20028;-72
2022/04/02 05:55:57;;;;;;;3.88;2.58;;;;;;;-1.69;74.56;100917.72;5080121;28;20044;-73
2022/04/02 05:58:23;;;;;;;6.53;2.75;;;;;;;-1.59;73.74;100928.97;5078166;28;20041;-72
2022/04/02 06:00:49;;;;;;;6.53;2.88;;;;;;;-1.40;73.37;100924.78;5083709;28;20036;-72
2022/04/02 06:03:15;;;;;;;4.93;3.17;;;;;;;-1.34;72.66;100932.06;5077919;28;20041;-72
2022/04/02 06:05:41;;;;;;;7.40;2.83;;;;;;;-1.22;71.75;100926.97;5083201;28;20115;-72
2022/04/02 06:08:07;;;;;;;4.07;2.55;;;;;;;-1.07;71.53;100927.69;5085730;28;20170;-73
2022/04/02 06:10:33;;;;;;;5.00;2.80;;;;;;;-0.84;70.50;100918.50;5093940;28;20517;-73
2022/04/02 06:12:58;;;;;;;4.93;3.00;;;;;;;-0.82;69.75;100929.91;5085864;28;20044;-73
2022/04/02 06:15:24;;;;;;;5.10;2.50;;;;;;;-0.74;69.68;100921.66;5086651;28;20122;-73
2022/04/02 06:17:51;;;;;;;8.52;4.05;;;;;;;-0.68;69.43;100928.94;5097326;28;20063;-73
2022/04/02 06:20:17;;;;;;;6.85;2.17;;;;;;;-0.64;69.16;100920.25;5091418;28;20110;-73
2022/04/02 06:22:42;;;;;;;6.75;3.00;;;;;;;-0.38;68.47;100927.59;5087012;28;20064;-73
2022/04/02 06:25:09;;;;;;;6.00;2.70;;;;;;;-0.21;67.00;100921.84;5100598;28;20493;-72
2022/04/02 06:27:44;;;;;;;3.95;2.63;;;;;;;0.05;66.39;100919.22;5094895;28;20063;-73
2022/04/02 06:30:15;;;;;;;5.32;2.35;;;;;;;0.21;65.65;100913.41;5081565;28;20046;-73
2022/04/02 06:32:41;;;;;;;8.65;3.80;;;;;;;0.44;65.43;100918.41;5067681;28;20033;-73
2022/04/02 06:35:08;;;;;;;3.67;2.60;;;;;;;0.47;64.50;100917.16;5091783;28;20675;-73
2022/04/02 06:37:35;;;;;;;4.50;2.72;;;;;;;0.76;64.23;100914.03;5093298;28;20036;-73
2022/04/02 06:40:04;;;;;;;4.85;2.72;;;;;;;1.26;62.22;100911.59;5082754;28;20127;-73
2022/04/02 06:42:30;;;;;;;8.48;2.95;;;;;;;2.24;60.45;100908.56;5087218;28;20032;-72
2022/04/02 06:44:55;;;;;;;6.93;3.15;;;;;;;3.00;57.91;100900.16;5095634;28;20062;-73
2022/04/02 06:47:26;;;;;;;4.85;2.67;;;;;;;3.46;55.82;100912.34;5105642;28;20040;-74
2022/04/02 06:49:52;;;;;;;4.13;2.97;;;;;;;3.72;54.21;100903.88;5100092;28;20141;-73
2022/04/02 06:52:17;;;;;;;7.05;2.92;;;;;;;3.54;54.20;100898.50;5103520;28;20197;-73
2022/04/02 06:54:43;;;;;;;5.57;3.22;;;;;;;3.35;54.42;100899.56;5093733;28;20048;-73
2022/04/02 06:57:08;;;;;;;6.72;3.75;;;;;;;4.12;53.99;100895.97;5101869;28;20036;-73
2022/04/02 06:59:34;;;;;;;7.88;3.45;;;;;;;4.48;50.74;100902.31;5105067;28;20154;-73
2022/04/02 07:02:01;;;;;;;4.80;2.38;;;;;;;4.70;50.57;100895.25;5082353;28;20541;-73
2022/04/02 07:04:27;;;;;;;3.75;2.05;;;;;;;4.87;49.91;100886.41;5076222;28;20032;-74
2022/04/02 07:06:52;;;;;;;6.88;2.30;;;;;;;4.82;48.97;100893.34;5082306;28;20078;-72
2022/04/02 07:09:18;;;;;;;6.22;3.40;;;;;;;4.69;48.35;100893.59;5097485;28;20450;-73
2022/04/02 07:11:44;;;;;;;5.18;2.30;;;;;;;4.47;47.96;100882.47;5101144;28;20035;-74
2022/04/02 07:14:11;;;;;;;6.70;2.50;;;;;;;4.71;48.02;100888.75;5084693;28;20039;-73
2022/04/02 07:16:37;;;;;;;5.30;2.30;;;;;;;4.67;48.24;100890.28;5081413;28;20039;-73
2022/04/02 07:19:03;;;;;;;9.00;2.97;;;;;;;4.84;47.71;100883.06;5079901;28;20035;-74
2022/04/02 07:21:29;;;;;;;4.40;2.13;;;;;;;5.39;46.23;100871.75;5094730;28;20134;-72
2022/04/02 07:23:55;;;;;;;5.50;2.60;;;;;;;5.59;45.34;100878.66;5100881;28;20414;-72
2022/04/02 07:26:21;;;;;;;7.43;2.60;;;;;;;6.03;44.79;100872.44;5102419;28;20043;-73
2022/04/02 07:28:47;;;;;;;7.13;2.30;;;;;;;6.38;44.08;100860.50;5100527;28;20636;-73
2022/04/02 07:31:13;;;;;;;7.78;2.33;;;;;;;6.82;43.65;100860.63;5117262;27;20031;-74
2022/04/02 07:33:38;;;;;;;9.55;3.15;;;;;;;7.67;41.64;100868.28;5110761;28;20089;-73
2022/04/02 07:36:08;;;;;;;11.52;3.10;;;;;;;7.82;41.46;100862.16;5109275;28;20035;-74
2022/04/02 07:38:45;;;;;;;6.82;2.90;;;;;;;7.51;39.68;100861.81;5081527;28;20036;-73
2022/04/02 07:41:25;;;;;;;5.93;2.00;;;;;;;7.38;39.38;100855.91;5102972;28;20042;-73
2022/04/02 07:44:01;;;;;;;4.47;2.10;;;;;;;7.18;38.04;100864.66;5106197;28;20177;-74
2022/04/02 07:46:29;;;;;;;3.22;1.63;;;;;;;6.84;38.11;100864.75;5115664;28;20036;-74
2022/04/02 07:48:56;;;;;;;2.70;1.55;;;;;;;6.66;38.33;100862.31;5101327;28;20058;-73
2022/04/02 07:51:29;;;;;;;4.78;1.67;;;;;;;6.23;38.63;100857.50;5104828;27;20504;-72
2022/04/02 07:54:01;;;;;;;4.68;1.90;;;;;;;6.87;38.60;100852.50;5106925;28;20188;-74
2022/04/02 07:56:30;;;;;;;3.70;1.90;;;;;;;6.86;37.13;100861.78;5117988;27;20388;-74
2022/04/02 07:59:05;;;;;;;6.13;1.77;;;;;;;6.46;37.43;100851.09;5120190;27;20048;-74
2022/04/02 08:01:31;;;;;;;3.50;2.22;;;;;;;6.57;38.49;100841.97;5096685;27;20043;-74
2022/04/02 08:04:01;;;;;;;4.75;1.90;;;;;;;8.00;36.57;100844.56;5093638;28;20036;-73
2022/04/02 08:06:27;;;;;;;4.40;2.45;;;;;;;8.25;35.40;100852.97;5079795;28;20530;-73
2022/04/02 08:08:54;;;;;;;3.63;2.08;;;;;;;8.27;35.80;100841.78;5116943;27;20042;-73
2022/04/02 08:11:20;;;;;;;4.75;2.05;;;;;;;8.22;35.15;100841.75;5094546;28;20184;-72
2022/04/02 08:13:48;;;;;;;2.97;1.67;;;;;;;8.57;34.27;100836.59;5083736;27;20035;-73
2022/04/02 08:16:14;;;;;;;3.60;1.83;;;;;;;9.41;33.92;100832.91;5081187;28;20075;-72
2022/04/02 08:18:40;;;;;;;2.72;2.08;;;;;;;10.10;32.83;100838.00;5081774;28;20127;-74
2022/04/02 08:21:09;;;;;;;5.40;1.80;;;;;;;9.47;32.09;100833.75;5084623;27;20051;-73
2022/04/02 08:23:36;;;;;;;8.02;2.30;;;;;;;9.61;32.22;100835.72;5087572;28;20050;-73
2022/04/02 08:26:08;;;;;;;5.32;2.00;;;;;;;9.78;31.63;100838.22;5095592;28;20044;-74
2022/04/02 08:28:40;;;;;;;5.55;1.80;;;;;;;10.01;31.23;100836.06;5081250;28;20406;-72
2022/04/02 08:31:32;;;;;;;3.13;1.80;;;;;;;9.42;32.02;100840.03;5101305;28;20059;-73
2022/04/02 08:34:12;;;;;;;3.33;1.90;;;;;;;9.02;32.25;100840.66;5091793;28;20036;-73
2022/04/02 08:36:47;;;;;;;3.67;1.58;;;;;;;8.58;32.99;100845.59;5096451;28;20036;-73
2022/04/02 08:39:39;;;;;;;3.65;1.45;;;;;;;8.19;33.70;100842.28;5082848;28;20027;-73
2022/04/02 08:42:41;;;;;;;3.88;2.15;;;;;;;8.00;32.98;100839.91;5082504;28;20040;-73
2022/04/02 08:45:08;;;;;;;9.20;2.95;;;;;;;7.53;34.76;100840.53;5079091;28;20127;-72
2022/04/02 08:47:57;;;;;;;4.78;2.00;;;;;;;7.60;35.41;100839.50;5112028;27;20032;-72
2022/04/02 08:50:31;;;;;;;7.22;2.10;;;;;;;8.19;34.91;100831.34;5073912;28;20064;-72
2022/04/02 08:53:11;;;;;;;3.55;2.05;;;;;;;8.64;33.22;100836.34;5110059;27;20039;-72
2022/04/02 08:55:37;;;;;;;3.58;2.15;;;;;;;8.02;33.81;100835.03;5087873;28;20088;-73
2022/04/02 08:58:08;;;;;;;4.32;1.95;;;;;;;8.33;33.35;100829.78;5105207;28;20035;-73
2022/04/02 09:00:44;;;;;;;7.55;2.50;;;;;;;8.22;33.68;100830.81;5086423;28;20122;-71
2022/04/02 09:03:55;;;;;;;5.45;1.92;;;;;;;7.58;33.99;100820.63;5083626;28;20032;-73
2022/04/02 09:06:39;;;;;;;3.78;1.38;;;;;;;7.64;34.30;100816.91;5080853;28;20032;-73
2022/04/02 09:09:33;;;;;;;3.05;1.80;;;;;;;7.54;33.76;100820.31;5099373;27;20047;-73
2022/04/02 09:12:32;;;;;;;5.82;2.35;;;;;;;6.61;35.07;100816.69;5101408;27;20071;-73
2022/04/02 09:15:35;;;;;;;6.22;2.22;;;;;;;5.43;36.32;100815.75;5104642;27;20510;-73
2022/04/02 09:18:21;;;;;;;2.97;1.63;;;;;;;4.67;37.41;100814.16;5068105;28;20050;-72
2022/04/02 09:20:56;;;;;;;5.18;2.03;;;;;;;4.12;39.04;100802.81;5076503;27;20044;-73
2022/04/02 09:23:40;;;;;;;4.03;2.33;;;;;;;3.42;40.96;100808.91;5085008;27;20032;-73
2022/04/02 09:26:21;;;;;;;4.22;2.58;;;;;;;3.15;40.46;100805.72;5102078;27;20535;-73
2022/04/02 09:28:55;;;;;;;5.20;2.50;;;;;;;3.03;40.87;100802.13;5072771;28;20062;-74
2022/04/02 09:31:30;;;;;;;4.18;2.30;;;;;;;3.01;42.05;100806.94;5095870;27;20031;-73
2022/04/02 09:34:34;;;;;;;6.97;2.30;;;;;;;2.83;41.92;100799.66;5098497;28;20043;-73
2022/04/02 09:37:08;;;;;;;6.80;2.40;;;;;;;2.73;42.70;100794.75;5084040;27;20111;-73
2022/04/02 09:39:49;;;;;;;4.13;2.35;;;;;;;2.56;43.65;100801.81;5114635;27;20028;-73
2022/04/02 09:42:29;;;;;;;5.43;2.35;;;;;;;2.40;43.44;100789.69;5091171;28;20067;-74
2022/04/02 09:45:01;;;;;;;3.25;1.90;;;;;;;2.64;42.97;100788.00;5093804;28;20449;-74
2022/04/02 09:47:42;;;;;;;4.47;2.00;;;;;;;2.61;42.71;100784.91;5099444;27;20036;-73
2022/04/02 09:50:09;;;;;;;5.43;3.10;;;;;;;2.73;42.93;100783.91;5092256;28;20047;-73
2022/04/02 09:52:37;;;;;;;4.35;1.90;;;;;;;2.63;42.35;100783.63;5100780;28;20063;-74
2022/04/02 09:55:03;;;;;;;3.67;2.42;;;;;;;2.54;42.81;100782.25;5099952;28;20039;-74
2022/04/02 09:57:37;;;;;;;7.80;2.25;;;;;;;2.51;43.22;100780.00;5100722;27;20038;-73
2022/04/02 10:00:10;;;;;;;5.50;3.33;;;;;;;2.51;43.60;100777.28;5095650;28;20075;-74
2022/04/02 10:03:08;;;;;;;5.45;2.35;;;;;;;2.38;43.80;100777.44;5108269;28;20128;-74
2022/04/02 10:05:42;;;;;;;4.10;1.88;;;;;;;2.38;43.93;100770.13;5101808;28;20046;-74
2022/04/02 10:08:20;;;;;;;4.55;2.35;;;;;;;2.39;42.43;100771.78;5084506;28;20040;-73
2022/04/02 10:10:46;;;;;;;3.05;2.22;;;;;;;2.41;41.55;100756.13;5101643;28;20032;-73
2022/04/02 10:13:12;;;;;;;3.15;1.85;;;;;;;2.55;39.92;100761.41;5085852;28;20044;-73
2022/04/02 10:15:41;;;;;;;6.15;2.00;;;;;;;2.63;40.99;100759.25;5076802;28;20460;-74
2022/04/02 10:18:11;;;;;;;3.65;1.85;;;;;;;2.60;39.53;100750.72;5088458;28;20046;-73
2022/04/02 10:20:38;;;;;;;4.28;2.00;;;;;;;2.73;37.92;100759.53;5079643;28;20043;-74
2022/04/02 10:23:21;;;;;;;5.45;1.70;;;;;;;2.89;37.75;100744.53;5111991;27;20077;-73
2022/04/02 10:26:20;;;;;;;4.68;1.75;;;;;;;3.09;36.64;100744.28;5107540;28;20104;-73
2022/04/02 10:28:51;;;;;;;5.93;1.98;;;;;;;3.10;35.87;100748.63;5077902;27;20068;-73
2022/04/02 10:31:39;;;;;;;5.38;1.60;;;;;;;3.21;36.67;100747.03;5120419;27;20035;-73
2022/04/02 10:34:22;;;;;;;5.05;1.77;;;;;;;3.41;37.70;100742.16;5093795;28;20044;-73
2022/04/02 10:37:07;;;;;;;3.00;1.70;;;;;;;3.47;37.89;100730.41;5087015;28;20039;-73
2022/04/02 10:39:34;;;;;;;3.63;2.08;;;;;;;3.51;39.11;100733.47;5098394;27;20047;-73
2022/04/02 10:42:05;;;;;;;4.05;2.03;;;;;;;3.19;39.43;100739.13;5086487;28;20035;-73
2022/04/02 10:44:47;;;;;;;3.80;1.70;;;;;;;3.06;39.60;100730.34;5075550;28;20046;-73
2022/04/02 10:47:13;;;;;;;2.60;1.60;;;;;;;2.77;39.87;100729.25;5101104;28;20093;-74
2022/04/02 10:49:40;;;;;;;3.88;2.28;;;;;;;2.77;39.72;100730.09;5103345;28;20032;-74
2022/04/02 10:52:10;;;;;;;2.33;1.50;;;;;;;2.62;37.95;100725.09;5110100;28;20050;-74
2022/04/02 10:54:38;;;;;;;1.80;1.45;;;;;;;2.48;38.61;100726.28;5108491;28;20066;-73
2022/04/02 10:57:05;;;;;;;4.72;2.28;;;;;;;2.44;38.54;100719.69;5112773;27;20043;-74
2022/04/02 10:59:32;;;;;;;3.17;1.83;;;;;;;2.50;38.32;100723.34;5109460;28;20067;-73
2022/04/02 11:02:01;;;;;;;3.60;2.10;;;;;;;2.36;38.06;100712.66;5098913;28;20040;-74
2022/04/02 11:04:59;;;;;;;3.88;2.03;;;;;;;2.11;39.14;100726.28;5104600;28;20033;-73
2022/04/02 11:07:37;;;;;;;4.78;2.13;;;;;;;2.05;39.34;100720.91;5076778;28;20039;-73
2022/04/02 11:10:06;;;;;;;4.40;1.98;;;;;;;1.96;38.77;100711.44;5078040;28;20067;-73
2022/04/02 11:12:37;;;;;;;3.97;1.92;;;;;;;1.94;39.45;100718.94;5074579;28;20504;-76
2022/04/02 11:15:14;;;;;;;2.42;1.50;;;;;;;1.92;38.86;100710.22;5100749;28;20520;-73
2022/04/02 11:17:43;;;;;;;5.63;1.52;;;;;;;1.90;39.13;100702.31;5074309;27;20042;-76
2022/04/02 11:20:14;;;;;;;2.72;1.40;;;;;;;1.97;38.88;100694.97;5085687;28;20189;-74
2022/04/02 11:22:52;;;;;;;2.55;1.48;;;;;;;2.05;38.55;100700.06;5094220;28;20032;-72
2022/04/02 11:25:35;;;;;;;6.30;1.90;;;;;;;2.09;37.99;100695.91;5095562;28;20038;-74
2022/04/02 11:28:12;;;;;;;5.50;1.58;;;;;;;2.11;37.31;100693.78;5120624;27;20515;-76
2022/04/02 11:30:47;;;;;;;2.22;1.70;;;;;;;2.08;37.84;100690.69;5120734;27;20032;-74
2022/04/02 11:33:21;;;;;;;2.72;1.73;;;;;;;2.26;37.76;100695.31;5097921;28;20092;-72
2022/04/02 11:36:04;;;;;;;4.95;2.25;;;;;;;2.48;38.04;100696.50;5062369;28;20422;-75
2022/04/02 11:38:36;;;;;;;3.70;1.90;;;;;;;2.56;37.66;100684.50;5060804;28;20048;-74
2022/04/02 11:41:20;;;;;;;2.92;1.67;;;;;;;2.46;37.21;100682.34;5095180;28;20131;-73
2022/04/02 11:43:51;;;;;;;4.45;2.10;;;;;;;2.49;38.60;100681.91;5080007;28;20036;-74
2022/04/02 11:46:18;;;;;;;5.50;2.10;;;;;;;2.47;39.56;100678.59;5106462;28;20040;-74
2022/04/02 11:48:55;;;;;;;4.88;2.35;;;;;;;2.40;39.84;100678.66;5094252;28;20028;-75